Time;durP1;ratioP1;P1;durP2;ratioP2;P2;SDS_P1;SDS_P2;PMS_P1;PMS_P2;Temp;Humidity;BMP_temperature;BMP_pressure;BME280_temperature;BME280_humidity;BME280_pressure;Samples;Min_cycle;Max_cycle;Signal;HPM_P1;HPM_P2
2021/10/16 00:00:49;;;;;;;15.80;3.08;;;8.20;99.90;;;;;;4970030;28;20133;-79
2021/10/16 00:03:15;;;;;;;;;;;8.10;99.90;;;;;;4989661;28;20046;-79
2021/10/16 00:05:40;;;;;;;16.02;2.85;;;8.10;99.90;;;;;;5012509;28;19929;-80
2021/10/16 00:08:06;;;;;;;17.40;3.10;;;8.00;99.90;;;;;;4987740;28;20422;-80
2021/10/16 00:10:32;;;;;;;14.88;3.20;;;8.00;99.90;;;;;;4984134;28;20045;-80
2021/10/16 00:12:58;;;;;;;12.48;3.00;;;8.10;99.90;;;;;;4992108;28;20117;-79
2021/10/16 00:15:25;;;;;;;10.52;2.88;;;7.90;99.90;;;;;;4978592;28;20156;-80
2021/10/16 00:17:50;;;;;;;11.52;3.30;;;7.90;99.90;;;;;;4977447;28;20042;-79
2021/10/16 00:20:16;;;;;;;11.05;3.38;;;7.80;99.90;;;;;;4987299;28;20132;-80
2021/10/16 00:22:42;;;;;;;17.52;3.13;;;7.90;99.90;;;;;;5012250;28;20142;-78
2021/10/16 00:25:08;;;;;;;14.55;3.42;;;7.70;99.90;;;;;;4992010;28;20050;-79
2021/10/16 00:27:33;;;;;;;15.35;3.55;;;7.70;99.90;;;;;;4976000;28;20411;-80
2021/10/16 00:29:59;;;;;;;13.23;3.45;;;7.80;99.90;;;;;;4990245;28;20052;-79
2021/10/16 00:32:25;;;;;;;19.30;3.55;;;7.70;99.90;;;;;;4996231;28;20031;-79
2021/10/16 00:34:51;;;;;;;14.68;3.45;;;7.70;99.90;;;;;;4980663;28;20034;-80
2021/10/16 00:37:16;;;;;;;14.82;3.70;;;7.60;99.90;;;;;;4976848;28;20469;-79
2021/10/16 00:39:42;;;;;;;14.70;3.10;;;7.60;99.90;;;;;;4992014;28;20401;-78
2021/10/16 00:42:08;;;;;;;22.50;3.50;;;7.50;99.90;;;;;;4992051;28;20054;-79
2021/10/16 00:44:34;;;;;;;17.52;3.03;;;7.80;99.90;;;;;;4990860;28;20038;-80
2021/10/16 00:47:00;;;;;;;12.52;3.05;;;7.50;99.90;;;;;;4976490;28;20068;-79
2021/10/16 00:49:28;;;;;;;18.92;3.30;;;7.50;99.90;;;;;;4990906;28;20116;-79
2021/10/16 00:51:54;;;;;;;17.90;3.38;;;7.50;99.90;;;;;;4982082;28;20052;-80
2021/10/16 00:54:21;;;;;;;11.00;2.90;;;7.50;99.90;;;;;;4952580;28;20453;-80
2021/10/16 00:56:50;;;;;;;13.88;3.70;;;7.40;99.90;;;;;;4970413;28;20034;-78
2021/10/16 00:59:17;;;;;;;12.48;3.13;;;7.40;99.90;;;;;;4977348;28;20512;-79
2021/10/16 01:01:43;;;;;;;16.92;3.20;;;7.40;99.90;;;;;;4996197;28;20037;-80
2021/10/16 01:04:09;;;;;;;17.73;2.95;;;7.30;99.90;;;;;;4978718;28;20046;-79
2021/10/16 01:06:37;;;;;;;14.30;3.15;;;7.30;99.90;;;;;;4994660;28;20465;-77
2021/10/16 01:09:08;;;;;;;18.35;2.90;;;7.30;99.90;;;;;;4994926;28;20068;-79
2021/10/16 01:11:49;;;;;;;14.40;3.15;;;7.30;99.90;;;;;;4993937;28;20138;-80
2021/10/16 01:14:16;;;;;;;13.25;3.10;;;7.30;99.90;;;;;;4995296;28;20037;-79
2021/10/16 01:16:43;;;;;;;15.18;2.85;;;7.30;99.90;;;;;;4979181;28;20038;-78
2021/10/16 01:19:14;;;;;;;13.95;2.70;;;7.20;99.90;;;;;;4978565;28;20065;-80
2021/10/16 01:21:45;;;;;;;11.88;3.00;;;7.30;99.90;;;;;;4989891;28;20045;-78
2021/10/16 01:24:13;;;;;;;12.07;2.70;;;7.30;99.90;;;;;;4996840;28;20080;-78
2021/10/16 01:26:42;;;;;;;9.77;2.60;;;7.30;99.90;;;;;;5012705;28;20046;-80
2021/10/16 01:29:09;;;;;;;12.25;2.80;;;7.30;99.90;;;;;;4985335;28;20061;-78
2021/10/16 01:31:37;;;;;;;20.17;2.95;;;7.30;99.90;;;;;;4987982;28;20049;-78
2021/10/16 01:34:03;;;;;;;9.98;2.47;;;7.30;99.90;;;;;;4990699;28;20143;-75
2021/10/16 01:36:49;;;;;;;15.00;2.70;;;7.30;99.90;;;;;;4978686;28;20525;-78
2021/10/16 01:39:16;;;;;;;15.18;2.80;;;7.30;99.90;;;;;;4994554;28;20108;-80
2021/10/16 01:41:42;;;;;;;14.48;2.63;;;7.30;99.90;;;;;;4992302;28;20362;-78
2021/10/16 01:44:08;;;;;;;15.15;3.00;;;7.40;99.90;;;;;;4993174;28;20193;-78
2021/10/16 01:46:35;;;;;;;12.27;2.80;;;7.30;99.90;;;;;;4994932;28;20110;-78
2021/10/16 01:49:11;;;;;;;11.38;2.40;;;7.40;99.90;;;;;;4993970;28;20084;-80
2021/10/16 01:51:37;;;;;;;16.73;2.70;;;7.40;99.90;;;;;;4994442;28;20045;-78
2021/10/16 01:54:03;;;;;;;11.70;2.35;;;7.40;99.90;;;;;;4991509;28;20040;-79
2021/10/16 01:56:29;;;;;;;14.07;2.70;;;7.50;99.90;;;;;;4995241;28;20046;-78
2021/10/16 01:58:54;;;;;;;16.88;2.85;;;7.60;99.90;;;;;;4977704;28;20049;-80
2021/10/16 02:01:20;;;;;;;11.23;2.50;;;7.60;99.90;;;;;;5003830;28;20045;-79
2021/10/16 02:03:46;;;;;;;15.48;2.65;;;7.60;99.90;;;;;;5023408;28;20036;-78
2021/10/16 02:06:12;;;;;;;15.05;2.75;;;7.60;99.90;;;;;;5005311;28;20086;-79
2021/10/16 02:08:40;;;;;;;12.98;2.80;;;7.60;99.90;;;;;;5005596;28;20041;-79
2021/10/16 02:11:06;;;;;;;13.70;2.78;;;7.70;99.90;;;;;;5004814;28;20049;-78
2021/10/16 02:13:31;;;;;;;15.45;2.53;;;7.70;99.90;;;;;;5003379;28;20073;-78
2021/10/16 02:15:57;;;;;;;9.38;2.60;;;7.70;99.90;;;;;;5003515;28;20038;-79
2021/10/16 02:18:23;;;;;;;10.57;2.55;;;7.70;99.90;;;;;;4978548;28;20050;-79
2021/10/16 02:20:49;;;;;;;11.68;2.70;;;7.70;99.90;;;;;;4993047;28;20050;-78
2021/10/16 02:23:14;;;;;;;13.57;2.30;;;7.80;99.90;;;;;;4978207;28;20042;-78
2021/10/16 02:25:40;;;;;;;11.27;2.53;;;7.80;99.90;;;;;;4978033;28;20037;-79
2021/10/16 02:28:06;;;;;;;13.07;3.00;;;7.80;99.90;;;;;;4980026;28;20042;-79
2021/10/16 02:30:31;;;;;;;10.85;2.63;;;7.80;99.90;;;;;;4994064;28;20377;-79
2021/10/16 02:32:57;;;;;;;14.07;2.72;;;7.90;99.90;;;;;;4994643;28;20041;-77
2021/10/16 02:35:23;;;;;;;16.50;2.80;;;7.80;99.90;;;;;;4992959;28;20045;-78
2021/10/16 02:37:48;;;;;;;14.55;2.72;;;7.90;99.90;;;;;;4992708;28;20046;-79
2021/10/16 02:40:14;;;;;;;10.77;2.83;;;7.90;99.90;;;;;;4976717;28;20433;-78
2021/10/16 02:42:41;;;;;;;13.73;2.60;;;7.90;99.90;;;;;;4977533;28;20045;-77
2021/10/16 02:45:07;;;;;;;16.73;2.72;;;7.90;99.90;;;;;;4977713;28;20045;-78
2021/10/16 02:47:33;;;;;;;8.63;2.45;;;7.90;99.90;;;;;;4992475;28;20054;-79
2021/10/16 02:50:07;;;;;;;11.40;2.70;;;8.00;99.90;;;;;;4993345;28;20063;-78
2021/10/16 02:52:32;;;;;;;13.70;2.80;;;8.00;99.90;;;;;;4977647;28;20077;-79
2021/10/16 02:54:58;;;;;;;12.35;2.40;;;8.00;99.90;;;;;;4993323;28;20104;-79
2021/10/16 02:57:23;;;;;;;9.60;2.60;;;8.00;99.90;;;;;;4980561;28;20433;-78
2021/10/16 02:59:49;;;;;;;8.27;2.47;;;8.20;99.90;;;;;;4994439;28;20045;-80
2021/10/16 03:02:15;;;;;;;9.00;2.60;;;8.10;99.90;;;;;;4974365;28;20061;-78
2021/10/16 03:04:40;;;;;;;10.48;2.67;;;8.10;99.90;;;;;;4993116;28;20080;-79
2021/10/16 03:07:06;;;;;;;13.90;2.58;;;8.00;99.90;;;;;;4977091;28;20074;-80
2021/10/16 03:09:31;;;;;;;15.65;2.75;;;8.10;99.90;;;;;;4976437;28;20496;-77
2021/10/16 03:11:57;;;;;;;9.90;2.78;;;8.10;99.90;;;;;;5011041;28;20449;-78
2021/10/16 03:14:23;;;;;;;7.72;2.45;;;8.10;99.90;;;;;;4992052;28;20413;-78
2021/10/16 03:16:50;;;;;;;14.88;2.22;;;8.20;99.90;;;;;;4993045;28;20213;-78
2021/10/16 03:19:15;;;;;;;10.93;2.67;;;8.20;99.90;;;;;;4992972;28;20038;-79
2021/10/16 03:21:41;;;;;;;9.00;2.40;;;8.20;99.90;;;;;;4976418;28;20041;-78
2021/10/16 03:24:07;;;;;;;11.45;2.40;;;8.20;99.90;;;;;;5005282;28;20038;-78
2021/10/16 03:26:32;;;;;;;12.90;1.95;;;8.20;99.90;;;;;;4982212;28;20229;-79
2021/10/16 03:28:58;;;;;;;11.65;2.40;;;8.20;99.90;;;;;;4976374;28;20208;-80
2021/10/16 03:31:23;;;;;;;11.65;2.58;;;8.30;99.90;;;;;;4993380;28;20069;-78
2021/10/16 03:33:49;;;;;;;14.68;2.42;;;8.30;99.90;;;;;;4992078;28;20053;-78
2021/10/16 03:36:15;;;;;;;12.85;2.30;;;8.30;99.90;;;;;;4977329;28;20547;-78
2021/10/16 03:38:40;;;;;;;14.23;2.28;;;8.30;99.90;;;;;;4991693;28;20203;-79
2021/10/16 03:41:06;;;;;;;16.27;2.22;;;8.30;99.90;;;;;;4991969;28;20391;-80
2021/10/16 03:43:31;;;;;;;12.45;2.30;;;8.40;99.90;;;;;;4992628;28;20042;-80
2021/10/16 03:45:57;;;;;;;17.60;2.45;;;8.30;99.90;;;;;;4977723;28;20555;-80
2021/10/16 03:48:23;;;;;;;14.55;2.20;;;8.40;99.90;;;;;;4992200;28;20085;-78
2021/10/16 03:50:48;;;;;;;13.65;2.10;;;8.50;99.90;;;;;;4989661;28;20350;-79
2021/10/16 03:53:14;;;;;;;10.75;2.47;;;8.40;99.90;;;;;;4978249;28;20053;-78
2021/10/16 03:55:39;;;;;;;11.32;2.47;;;8.40;99.90;;;;;;4993097;28;20045;-79
2021/10/16 03:58:05;;;;;;;10.18;2.28;;;8.40;99.90;;;;;;4993177;28;20045;-79
2021/10/16 04:00:31;;;;;;;13.38;2.47;;;8.40;99.90;;;;;;4975929;28;20497;-79
2021/10/16 04:03:03;;;;;;;19.27;2.25;;;8.50;99.90;;;;;;4992759;28;20488;-79
2021/10/16 04:05:28;;;;;;;16.73;2.15;;;8.50;99.90;;;;;;4975409;28;20485;-78
2021/10/16 04:07:54;;;;;;;7.72;1.90;;;8.50;99.90;;;;;;4976729;28;20165;-79
2021/10/16 04:10:19;;;;;;;12.30;2.15;;;8.50;99.90;;;;;;4992565;28;20037;-79
2021/10/16 04:12:45;;;;;;;13.77;1.90;;;8.50;99.90;;;;;;4993712;28;20088;-79
2021/10/16 04:15:11;;;;;;;17.45;2.22;;;8.50;99.90;;;;;;4992757;28;20046;-78
2021/10/16 04:17:36;;;;;;;12.27;1.80;;;8.50;99.90;;;;;;4992723;28;20042;-79
2021/10/16 04:20:03;;;;;;;8.25;1.88;;;8.50;99.90;;;;;;4992822;28;20048;-78
2021/10/16 04:22:28;;;;;;;17.80;2.45;;;8.50;99.90;;;;;;4992383;28;20449;-79
2021/10/16 04:24:54;;;;;;;13.75;2.38;;;8.50;99.90;;;;;;4975855;28;20057;-78
2021/10/16 04:27:23;;;;;;;6.80;2.30;;;8.60;99.90;;;;;;4992759;28;20046;-79
2021/10/16 04:29:49;;;;;;;11.40;2.10;;;8.50;99.90;;;;;;4991868;28;20058;-79
2021/10/16 04:32:15;;;;;;;11.00;1.92;;;8.70;99.90;;;;;;4992779;28;20913;-78
2021/10/16 04:34:41;;;;;;;8.27;1.90;;;8.60;99.90;;;;;;4994134;28;20124;-78
2021/10/16 04:37:06;;;;;;;8.25;2.33;;;8.50;99.90;;;;;;4997023;28;20034;-78
2021/10/16 04:39:32;;;;;;;10.18;2.00;;;8.60;99.90;;;;;;4995673;28;20042;-78
2021/10/16 04:41:58;;;;;;;12.38;2.10;;;8.50;99.90;;;;;;4996278;28;20073;-78
2021/10/16 04:44:24;;;;;;;10.57;2.03;;;8.60;99.90;;;;;;4979178;28;20046;-79
2021/10/16 04:46:50;;;;;;;6.97;2.03;;;8.50;99.90;;;;;;4995169;28;20044;-79
2021/10/16 04:49:16;;;;;;;7.82;1.73;;;8.50;99.90;;;;;;4995079;28;20487;-78
2021/10/16 04:51:42;;;;;;;9.13;1.83;;;8.50;99.90;;;;;;4979773;28;20084;-78
2021/10/16 04:54:09;;;;;;;9.60;1.77;;;8.60;99.90;;;;;;4996543;28;20034;-78
2021/10/16 04:56:34;;;;;;;12.30;1.90;;;8.60;99.90;;;;;;4995429;28;20038;-79
2021/10/16 04:59:00;;;;;;;10.02;2.25;;;8.50;99.90;;;;;;5013955;28;20433;-79
2021/10/16 05:01:27;;;;;;;11.27;2.10;;;8.60;99.90;;;;;;4994886;28;20038;-79
2021/10/16 05:03:52;;;;;;;15.27;2.80;;;8.60;99.90;;;;;;4996086;28;20492;-78
2021/10/16 05:06:20;;;;;;;9.55;2.03;;;8.60;99.90;;;;;;4996756;28;20054;-79
2021/10/16 05:08:46;;;;;;;9.07;2.25;;;8.60;99.90;;;;;;4979804;28;20097;-79
2021/10/16 05:11:12;;;;;;;10.77;2.33;;;8.60;99.90;;;;;;4977884;28;20132;-78
2021/10/16 05:13:37;;;;;;;11.05;2.25;;;8.60;99.90;;;;;;4979206;28;20228;-79
2021/10/16 05:16:03;;;;;;;9.77;1.80;;;8.60;99.90;;;;;;4983587;28;20104;-79
2021/10/16 05:18:31;;;;;;;11.55;2.58;;;8.60;99.90;;;;;;4997665;28;20042;-78
2021/10/16 05:20:56;;;;;;;12.90;2.42;;;8.60;99.90;;;;;;4996145;28;20050;-78
2021/10/16 05:23:22;;;;;;;21.02;2.42;;;8.60;99.90;;;;;;4979325;28;20061;-78
2021/10/16 05:25:47;;;;;;;9.27;2.00;;;8.60;99.90;;;;;;4996648;28;20061;-78
2021/10/16 05:28:13;;;;;;;9.57;2.17;;;8.70;99.90;;;;;;4979621;28;20045;-79
2021/10/16 05:30:39;;;;;;;12.77;2.50;;;8.60;99.90;;;;;;4996360;28;20037;-78
2021/10/16 05:33:05;;;;;;;14.18;2.30;;;8.60;99.90;;;;;;4995002;28;20504;-78
2021/10/16 05:35:30;;;;;;;9.38;2.33;;;8.60;99.90;;;;;;4979205;28;20412;-80
2021/10/16 05:37:56;;;;;;;9.90;2.60;;;8.70;99.90;;;;;;4997016;28;20037;-80
2021/10/16 05:40:22;;;;;;;10.38;2.60;;;8.60;99.90;;;;;;4995866;28;20074;-78
2021/10/16 05:42:47;;;;;;;8.73;2.35;;;8.60;99.90;;;;;;4994758;28;20112;-80
2021/10/16 05:45:13;;;;;;;14.30;2.50;;;8.60;99.90;;;;;;4986521;28;20063;-78
2021/10/16 05:47:41;;;;;;;8.88;2.33;;;8.60;99.90;;;;;;4993734;28;20045;-78
2021/10/16 05:50:08;;;;;;;11.23;2.45;;;8.60;99.90;;;;;;4978316;28;20042;-80
2021/10/16 05:52:35;;;;;;;12.80;2.72;;;8.70;99.90;;;;;;4996064;28;20059;-80
2021/10/16 05:55:02;;;;;;;12.20;2.42;;;8.70;99.90;;;;;;4977574;28;20041;-80
2021/10/16 05:57:27;;;;;;;8.15;1.70;;;8.80;99.90;;;;;;4978760;28;20050;-78
2021/10/16 05:59:53;;;;;;;7.40;1.85;;;9.20;99.90;;;;;;4978367;28;20063;-81
2021/10/16 06:02:19;;;;;;;9.40;2.13;;;9.40;99.90;;;;;;4999166;28;20042;-80
2021/10/16 06:04:44;;;;;;;9.07;2.15;;;9.70;99.90;;;;;;4974881;28;20050;-80
2021/10/16 06:07:10;;;;;;;8.25;2.05;;;10.10;99.90;;;;;;4998923;28;20057;-79
2021/10/16 06:09:36;;;;;;;12.10;2.30;;;10.40;99.90;;;;;;4978368;28;20048;-84
2021/10/16 06:12:01;;;;;;;12.20;2.00;;;10.50;99.90;;;;;;4986383;28;20046;-81
2021/10/16 06:14:27;;;;;;;6.10;1.77;;;10.70;99.90;;;;;;4993447;28;20036;-82
2021/10/16 06:16:53;;;;;;;9.10;2.10;;;10.80;99.90;;;;;;4989050;28;20141;-78
2021/10/16 06:19:19;;;;;;;9.52;2.45;;;11.00;99.90;;;;;;4995338;28;20057;-78
2021/10/16 06:21:45;;;;;;;6.30;2.03;;;11.00;99.90;;;;;;4978892;28;20049;-79
2021/10/16 06:24:11;;;;;;;7.25;2.00;;;11.10;99.90;;;;;;4995319;28;20025;-78
2021/10/16 06:26:37;;;;;;;8.77;2.10;;;11.20;99.90;;;;;;4994567;28;20056;-82
2021/10/16 06:29:03;;;;;;;8.90;2.03;;;11.30;99.90;;;;;;4978987;28;20046;-79
2021/10/16 06:31:28;;;;;;;9.77;2.00;;;11.30;99.90;;;;;;4995059;28;20104;-76
2021/10/16 06:33:54;;;;;;;8.95;1.95;;;11.40;99.90;;;;;;4993736;28;20504;-78
2021/10/16 06:36:20;;;;;;;8.88;1.83;;;11.40;99.90;;;;;;5011006;28;20243;-78
2021/10/16 06:38:45;;;;;;;7.53;2.05;;;11.40;99.90;;;;;;4996905;28;20057;-79
2021/10/16 06:41:11;;;;;;;10.52;2.20;;;11.40;99.90;;;;;;4995041;28;20048;-80
2021/10/16 06:43:37;;;;;;;10.18;2.03;;;11.50;99.90;;;;;;4995354;28;20040;-80
2021/10/16 06:46:02;;;;;;;7.45;2.00;;;11.50;99.90;;;;;;4994195;28;20037;-81
2021/10/16 06:48:28;;;;;;;7.78;1.85;;;11.50;99.90;;;;;;4979245;28;20156;-80
2021/10/16 06:50:53;;;;;;;8.35;1.73;;;11.50;99.90;;;;;;4977872;28;20405;-78
2021/10/16 06:53:19;;;;;;;4.78;1.70;;;11.50;99.90;;;;;;4994811;28;20091;-80
2021/10/16 06:55:45;;;;;;;6.18;2.03;;;11.60;99.90;;;;;;4978671;28;20038;-81
2021/10/16 06:58:10;;;;;;;10.48;2.58;;;11.70;99.90;;;;;;4977629;28;20054;-78
2021/10/16 07:00:37;;;;;;;9.65;2.20;;;11.60;99.90;;;;;;5007454;28;20405;-77
2021/10/16 07:03:03;;;;;;;10.70;2.60;;;11.60;99.90;;;;;;4993540;28;20485;-75
2021/10/16 07:05:29;;;;;;;10.73;2.20;;;11.00;99.90;;;;;;5009802;28;20046;-78
2021/10/16 07:07:54;;;;;;;18.02;2.85;;;10.60;99.90;;;;;;4994455;28;20354;-78
2021/10/16 07:10:20;;;;;;;9.15;2.40;;;10.40;99.90;;;;;;4997846;28;20082;-79
2021/10/16 07:12:46;;;;;;;8.50;2.15;;;10.20;99.90;;;;;;4979534;28;20057;-78
2021/10/16 07:15:11;;;;;;;10.45;2.28;;;10.10;99.90;;;;;;4999167;28;20503;-79
2021/10/16 07:17:37;;;;;;;8.68;2.20;;;9.90;99.90;;;;;;4991577;28;20075;-75
2021/10/16 07:20:05;;;;;;;5.50;2.10;;;9.80;99.90;;;;;;4988974;28;20172;-78
2021/10/16 07:22:30;;;;;;;8.27;2.60;;;9.80;99.90;;;;;;5006037;28;20112;-76
2021/10/16 07:24:56;;;;;;;11.13;2.42;;;9.70;99.90;;;;;;4989323;28;20041;-76
2021/10/16 07:27:21;;;;;;;8.05;2.25;;;9.70;99.90;;;;;;4996682;28;20053;-76
2021/10/16 07:29:47;;;;;;;13.73;3.00;;;9.60;99.90;;;;;;4992364;28;20498;-77
2021/10/16 07:32:14;;;;;;;12.35;2.38;;;9.60;99.90;;;;;;4998626;28;20033;-80
2021/10/16 07:34:40;;;;;;;9.70;2.50;;;9.60;99.90;;;;;;5012300;28;20033;-76
2021/10/16 07:37:06;;;;;;;9.50;2.55;;;9.60;99.90;;;;;;4994480;28;20512;-76
2021/10/16 07:39:31;;;;;;;13.00;2.72;;;9.60;99.90;;;;;;4991353;28;20041;-76
2021/10/16 07:41:58;;;;;;;13.40;2.97;;;9.50;99.90;;;;;;4978496;28;20086;-77
2021/10/16 07:44:23;;;;;;;10.80;2.70;;;9.60;99.90;;;;;;4980588;28;20069;-78
2021/10/16 07:46:50;;;;;;;15.00;2.80;;;9.50;99.90;;;;;;4993833;28;20045;-77
2021/10/16 07:49:15;;;;;;;11.15;3.15;;;9.50;99.90;;;;;;4975580;28;20077;-76
2021/10/16 07:51:42;;;;;;;13.32;2.70;;;9.60;99.90;;;;;;4993521;28;20069;-76
2021/10/16 07:54:07;;;;;;;12.38;2.60;;;9.50;99.90;;;;;;4990691;28;20152;-76
2021/10/16 07:56:33;;;;;;;9.15;2.75;;;9.60;99.90;;;;;;4990847;28;20069;-77
2021/10/16 07:58:59;;;;;;;11.25;2.95;;;9.60;99.90;;;;;;4996570;28;20049;-77
2021/10/16 08:01:25;;;;;;;15.07;3.00;;;9.60;99.90;;;;;;5011514;28;20125;-77
2021/10/16 08:03:52;;;;;;;9.65;2.67;;;9.70;99.90;;;;;;4990220;28;20458;-80
2021/10/16 08:06:18;;;;;;;10.18;2.50;;;9.80;99.90;;;;;;4989200;28;20140;-76
2021/10/16 08:08:44;;;;;;;12.35;2.63;;;9.70;99.90;;;;;;4977620;28;20046;-76
2021/10/16 08:11:10;;;;;;;10.63;2.55;;;9.80;99.90;;;;;;4996898;28;20497;-77
2021/10/16 08:13:35;;;;;;;11.02;2.20;;;9.80;99.90;;;;;;4996937;28;20034;-76
2021/10/16 08:16:01;;;;;;;6.25;2.47;;;9.80;99.90;;;;;;4980387;28;20052;-76
2021/10/16 08:18:27;;;;;;;6.20;2.10;;;9.80;99.90;;;;;;4996924;28;20060;-77
2021/10/16 08:20:52;;;;;;;11.00;2.55;;;10.10;99.90;;;;;;4997138;28;20052;-77
2021/10/16 08:23:18;;;;;;;10.45;2.65;;;10.00;99.90;;;;;;4981717;28;20072;-77
2021/10/16 08:25:44;;;;;;;9.38;2.20;;;10.00;99.90;;;;;;4981810;28;20390;-75
2021/10/16 08:28:11;;;;;;;20.38;2.63;;;10.60;99.90;;;;;;4996744;28;20100;-76
2021/10/16 08:30:39;;;;;;;8.27;2.30;;;11.20;99.90;;;;;;4980131;28;20481;-76
2021/10/16 08:33:05;;;;;;;14.95;2.50;;;11.00;99.90;;;;;;4994282;28;20042;-76
2021/10/16 08:35:31;;;;;;;16.80;3.10;;;11.00;99.90;;;;;;4980160;28;20034;-77
2021/10/16 08:37:56;;;;;;;8.00;2.70;;;10.70;99.90;;;;;;4981402;28;20061;-78
2021/10/16 08:40:25;;;;;;;7.65;2.40;;;10.60;99.90;;;;;;4977778;28;20377;-77
2021/10/16 08:42:51;;;;;;;10.68;2.72;;;10.50;99.90;;;;;;4979403;28;20049;-77
2021/10/16 08:45:17;;;;;;;7.97;2.00;;;10.50;99.90;;;;;;5011124;28;20041;-76
2021/10/16 08:47:44;;;;;;;12.48;2.47;;;10.50;99.90;;;;;;4995634;28;20045;-76
2021/10/16 08:50:11;;;;;;;10.55;2.33;;;10.40;99.90;;;;;;4995164;28;20496;-78
2021/10/16 08:52:38;;;;;;;8.30;2.40;;;10.40;99.90;;;;;;4996972;28;20045;-78
2021/10/16 08:55:05;;;;;;;10.68;2.30;;;10.40;99.90;;;;;;4980519;28;20053;-77
2021/10/16 08:57:36;;;;;;;12.52;2.60;;;10.50;99.90;;;;;;4997611;28;20046;-79
2021/10/16 09:00:41;;;;;;;9.45;2.55;;;10.50;99.90;;;;;;4979710;28;20531;-77
2021/10/16 09:03:26;;;;;;;8.40;2.20;;;10.50;99.90;;;;;;4979587;28;20136;-77
2021/10/16 09:06:13;;;;;;;17.15;2.58;;;10.50;99.90;;;;;;4995866;28;20161;-78
2021/10/16 09:08:46;;;;;;;10.57;2.50;;;10.60;99.90;;;;;;4979999;28;20091;-77
2021/10/16 09:11:44;;;;;;;9.13;2.55;;;10.70;99.90;;;;;;4991765;28;20053;-76
2021/10/16 09:14:11;;;;;;;6.63;2.42;;;10.70;99.90;;;;;;4997005;28;20041;-76
2021/10/16 09:16:41;;;;;;;12.98;2.42;;;10.80;99.90;;;;;;4996776;28;20030;-76
2021/10/16 09:19:15;;;;;;;8.63;2.30;;;10.80;99.90;;;;;;4996417;28;20525;-76
2021/10/16 09:21:50;;;;;;;11.77;2.90;;;10.90;99.90;;;;;;5007673;28;20056;-77
2021/10/16 09:24:29;;;;;;;;;;;10.90;99.90;;;;;;4993336;28;20037;-78
2021/10/16 09:27:07;;;;;;;8.20;2.17;;;10.90;99.90;;;;;;4974932;28;19921;-76
2021/10/16 09:29:36;;;;;;;13.10;2.38;;;11.00;99.90;;;;;;5007718;28;20512;-78
2021/10/16 09:32:04;;;;;;;8.30;2.13;;;11.00;99.90;;;;;;5016725;28;20048;-77
2021/10/16 09:34:34;;;;;;;11.77;2.60;;;11.00;99.90;;;;;;5010229;28;20037;-78
2021/10/16 09:37:12;;;;;;;10.65;2.45;;;11.00;99.90;;;;;;4996654;28;20047;-76
2021/10/16 09:39:40;;;;;;;10.18;2.30;;;11.10;99.90;;;;;;4965637;28;20033;-77
2021/10/16 09:42:08;;;;;;;10.00;2.15;;;11.10;99.90;;;;;;5014807;28;20038;-77
2021/10/16 09:44:39;;;;;;;11.25;2.22;;;11.20;99.90;;;;;;4994592;28;20057;-77
2021/10/16 09:47:06;;;;;;;10.65;2.50;;;11.20;99.90;;;;;;4966510;28;20048;-77
2021/10/16 09:49:43;;;;;;;13.90;2.60;;;11.30;99.90;;;;;;5003159;28;20492;-78
2021/10/16 09:52:12;;;;;;;8.13;2.17;;;11.30;99.90;;;;;;4987928;28;20064;-77
2021/10/16 09:54:39;;;;;;;10.00;2.42;;;11.40;99.90;;;;;;4975821;28;20069;-77
2021/10/16 09:57:10;;;;;;;8.75;2.35;;;11.40;99.90;;;;;;4999725;28;21737;-82
2021/10/16 09:59:38;;;;;;;9.73;2.47;;;11.50;99.90;;;;;;5016072;28;20916;-78
2021/10/16 10:02:05;;;;;;;10.55;2.90;;;11.50;99.90;;;;;;5014510;28;20038;-77
2021/10/16 10:04:45;;;;;;;8.00;2.40;;;11.50;99.90;;;;;;4995704;28;20041;-77
2021/10/16 10:07:11;;;;;;;8.80;2.80;;;11.60;99.90;;;;;;4997815;28;20124;-77
2021/10/16 10:09:39;;;;;;;9.65;2.70;;;11.60;99.90;;;;;;4987020;28;20057;-77
2021/10/16 10:12:05;;;;;;;14.52;3.15;;;11.60;99.90;;;;;;4968118;28;20140;-77
2021/10/16 10:14:31;;;;;;;13.45;2.70;;;11.60;99.90;;;;;;5011874;28;20082;-77
2021/10/16 10:17:06;;;;;;;11.65;3.17;;;11.60;99.90;;;;;;4991950;28;20078;-77
2021/10/16 10:19:37;;;;;;;13.73;2.88;;;11.60;99.90;;;;;;4976132;28;20046;-76
2021/10/16 10:22:12;;;;;;;11.25;3.00;;;11.70;99.90;;;;;;5009410;28;20142;-78
2021/10/16 10:24:47;;;;;;;10.57;3.25;;;11.70;99.90;;;;;;4989280;28;20137;-77
2021/10/16 10:27:14;;;;;;;13.73;3.58;;;11.70;99.90;;;;;;4985010;28;20501;-76
2021/10/16 10:29:42;;;;;;;11.07;2.92;;;11.70;99.90;;;;;;4976387;28;20478;-79
2021/10/16 10:32:17;;;;;;;10.40;3.20;;;11.80;99.90;;;;;;4979841;28;20074;-78
2021/10/16 10:34:59;;;;;;;8.63;2.88;;;11.80;99.90;;;;;;4990817;28;20529;-79
2021/10/16 10:37:31;;;;;;;8.35;2.67;;;11.80;99.90;;;;;;4987518;28;20042;-80
2021/10/16 10:39:58;;;;;;;8.63;3.05;;;11.80;99.90;;;;;;4992514;28;20120;-78
2021/10/16 10:42:24;;;;;;;12.18;2.63;;;11.80;99.90;;;;;;4978741;28;20393;-77
2021/10/16 10:44:55;;;;;;;10.52;2.50;;;11.80;99.90;;;;;;4993118;28;20045;-78
2021/10/16 10:47:22;;;;;;;13.23;2.90;;;11.90;99.90;;;;;;5010286;28;20169;-78
2021/10/16 10:49:49;;;;;;;10.70;2.75;;;12.00;99.90;;;;;;4977430;28;20474;-77
2021/10/16 10:52:15;;;;;;;10.35;2.50;;;12.10;99.90;;;;;;4981901;28;20038;-79
2021/10/16 10:55:06;;;;;;;8.48;2.40;;;12.20;99.90;;;;;;4991859;28;20059;-77
2021/10/16 10:57:45;;;;;;;11.90;2.60;;;12.30;99.90;;;;;;4972586;28;20100;-76
2021/10/16 11:00:12;;;;;;;11.50;2.72;;;12.30;99.90;;;;;;4985317;28;20054;-78
2021/10/16 11:02:38;;;;;;;15.80;2.97;;;12.30;99.90;;;;;;4988373;28;20049;-77
2021/10/16 11:05:35;;;;;;;15.02;2.75;;;12.30;99.90;;;;;;4989178;28;20050;-76
2021/10/16 11:08:11;;;;;;;10.38;2.92;;;12.30;99.90;;;;;;4981494;28;20363;-76
2021/10/16 11:10:38;;;;;;;8.15;2.42;;;12.40;99.90;;;;;;4971640;28;20394;-74
2021/10/16 11:13:18;;;;;;;11.95;2.97;;;12.50;99.90;;;;;;4966510;28;20038;-78
2021/10/16 11:15:54;;;;;;;11.75;3.60;;;12.60;99.90;;;;;;4989434;28;20085;-80
2021/10/16 11:18:20;;;;;;;9.95;2.97;;;12.50;99.90;;;;;;5006583;28;20469;-79
2021/10/16 11:20:46;;;;;;;12.38;2.70;;;12.50;99.90;;;;;;4988526;28;20057;-77
2021/10/16 11:23:24;;;;;;;9.38;2.85;;;12.60;99.90;;;;;;4975560;28;20141;-77
2021/10/16 11:25:56;;;;;;;12.85;2.55;;;12.70;99.90;;;;;;4989946;28;20058;-77
2021/10/16 11:28:23;;;;;;;13.98;2.67;;;12.60;99.90;;;;;;4996562;28;20061;-78
2021/10/16 11:30:51;;;;;;;13.60;2.47;;;12.70;99.90;;;;;;4990373;28;20093;-77
2021/10/16 11:33:20;;;;;;;11.40;2.50;;;12.70;99.90;;;;;;4993013;28;20045;-76
2021/10/16 11:35:48;;;;;;;8.35;2.50;;;12.70;99.90;;;;;;4992355;28;20038;-77
2021/10/16 11:38:20;;;;;;;10.93;2.58;;;12.70;99.90;;;;;;4990493;28;20104;-76
2021/10/16 11:40:46;;;;;;;14.15;2.85;;;12.70;99.90;;;;;;4972778;28;20053;-77
2021/10/16 11:43:17;;;;;;;12.07;2.78;;;12.70;99.90;;;;;;4975115;28;20140;-76
2021/10/16 11:45:46;;;;;;;10.15;2.35;;;12.80;99.90;;;;;;4992638;28;20058;-76
2021/10/16 11:48:13;;;;;;;9.82;2.72;;;12.70;99.90;;;;;;4963916;28;20062;-76
2021/10/16 11:50:41;;;;;;;13.68;2.80;;;12.80;99.90;;;;;;4974163;28;20050;-77
2021/10/16 11:53:06;;;;;;;12.70;2.88;;;12.80;99.90;;;;;;4991952;28;20038;-76
2021/10/16 11:55:32;;;;;;;8.93;2.70;;;12.80;99.90;;;;;;4995785;28;20052;-77
2021/10/16 11:58:06;;;;;;;16.25;3.25;;;12.90;99.90;;;;;;5012994;28;20132;-76
2021/10/16 12:00:33;;;;;;;8.40;2.60;;;13.00;99.90;;;;;;4998980;28;20054;-76
2021/10/16 12:03:05;;;;;;;12.38;3.05;;;13.00;99.90;;;;;;5013614;28;20060;-76
2021/10/16 12:05:31;;;;;;;7.85;2.42;;;13.10;99.90;;;;;;4995860;28;20058;-78
2021/10/16 12:08:09;;;;;;;9.98;2.70;;;13.00;99.90;;;;;;5009480;28;20397;-76
2021/10/16 12:10:37;;;;;;;16.27;2.95;;;13.10;99.90;;;;;;4990971;28;20026;-77
2021/10/16 12:13:02;;;;;;;10.52;2.83;;;13.20;99.90;;;;;;4993661;28;20042;-78
2021/10/16 12:15:45;;;;;;;11.60;2.53;;;13.20;99.90;;;;;;4974546;28;20382;-76
2021/10/16 12:18:26;;;;;;;11.23;2.60;;;13.30;99.90;;;;;;4992401;28;20441;-77
2021/10/16 12:21:03;;;;;;;11.65;2.47;;;13.20;99.90;;;;;;4984535;28;20066;-76
2021/10/16 12:23:59;;;;;;;13.27;2.80;;;13.20;99.90;;;;;;4976112;28;20133;-76
2021/10/16 12:26:29;;;;;;;11.73;2.97;;;13.30;99.90;;;;;;4929447;29;20051;-76
2021/10/16 12:28:57;;;;;;;8.43;2.67;;;13.30;99.90;;;;;;4915181;29;20054;-77
2021/10/16 12:31:24;;;;;;;11.88;2.88;;;13.40;99.90;;;;;;4928983;29;20557;-78
2021/10/16 12:34:04;;;;;;;15.75;3.08;;;13.40;99.90;;;;;;4930412;29;20152;-78
2021/10/16 12:36:42;;;;;;;10.80;2.47;;;13.40;99.90;;;;;;4935381;29;20079;-78
2021/10/16 12:39:10;;;;;;;14.52;3.17;;;13.40;99.90;;;;;;4912462;29;20500;-78
2021/10/16 12:41:45;;;;;;;16.55;3.38;;;13.40;99.90;;;;;;4897398;29;20063;-78
2021/10/16 12:44:17;;;;;;;13.00;2.92;;;13.40;99.90;;;;;;4911917;29;20474;-77
2021/10/16 12:46:44;;;;;;;11.48;2.50;;;13.40;99.90;;;;;;4914971;29;20139;-77
2021/10/16 12:49:25;;;;;;;8.90;2.42;;;13.40;99.90;;;;;;4911457;29;20262;-81